Time;durP1;ratioP1;P1;durP2;ratioP2;P2;SDS_P1;SDS_P2;PMS_P1;PMS_P2;Temp;Humidity;BMP_temperature;BMP_pressure;BME280_temperature;BME280_humidity;BME280_pressure;Samples;Min_cycle;Max_cycle;Signal;HPM_P1;HPM_P2
2022/04/13 00:01:49;;;;;;;8.60;5.30;;;12.20;99.90;;;;;;5072818;28;20371;-78
2022/04/13 00:04:15;;;;;;;15.82;5.15;;;12.10;99.90;;;;;;5072361;28;20198;-78
2022/04/13 00:06:41;;;;;;;9.20;5.35;;;12.00;99.90;;;;;;5072491;28;20119;-78
2022/04/13 00:09:09;;;;;;;9.23;5.20;;;11.90;99.90;;;;;;5072751;28;20185;-78
2022/04/13 00:11:35;;;;;;;10.93;6.82;;;11.90;99.90;;;;;;5072576;28;20040;-78
2022/04/13 00:14:01;;;;;;;9.50;5.40;;;11.90;99.90;;;;;;5072481;28;20085;-78
2022/04/13 00:16:27;;;;;;;9.00;5.35;;;11.90;99.90;;;;;;5072413;28;20036;-78
2022/04/13 00:18:53;;;;;;;9.55;4.82;;;11.80;99.90;;;;;;5072436;28;20052;-78
2022/04/13 00:21:19;;;;;;;9.88;4.70;;;11.80;99.90;;;;;;5072933;28;20041;-78
2022/04/13 00:23:45;;;;;;;12.68;6.18;;;11.70;99.90;;;;;;5072647;28;20120;-78
2022/04/13 00:26:10;;;;;;;10.20;5.32;;;11.70;99.90;;;;;;5072300;28;20469;-78
2022/04/13 00:28:36;;;;;;;8.38;5.25;;;11.70;99.90;;;;;;5072428;28;20044;-78
2022/04/13 00:31:02;;;;;;;13.10;5.95;;;11.60;99.90;;;;;;5072259;28;20040;-78
2022/04/13 00:33:28;;;;;;;9.23;5.85;;;11.60;99.90;;;;;;5072247;28;20555;-78
2022/04/13 00:35:54;;;;;;;10.30;5.20;;;11.50;99.90;;;;;;5070842;28;20048;-78
2022/04/13 00:38:21;;;;;;;8.60;5.40;;;11.50;99.90;;;;;;5072295;28;20048;-78
2022/04/13 00:40:48;;;;;;;9.70;5.70;;;11.50;99.90;;;;;;5072065;28;20071;-78
2022/04/13 00:43:13;;;;;;;11.95;6.20;;;11.40;99.90;;;;;;5071204;28;20063;-77
2022/04/13 00:45:43;;;;;;;9.35;5.32;;;11.40;99.90;;;;;;5072048;28;20040;-78
2022/04/13 00:48:12;;;;;;;8.70;5.28;;;11.30;99.90;;;;;;5072324;28;20055;-78
2022/04/13 00:50:38;;;;;;;13.43;5.65;;;11.30;99.90;;;;;;5072051;28;20032;-78
2022/04/13 00:53:06;;;;;;;8.95;4.95;;;11.30;99.90;;;;;;5073530;28;20566;-78
2022/04/13 00:55:37;;;;;;;11.35;6.10;;;11.30;99.90;;;;;;5072403;28;20115;-78
2022/04/13 00:58:04;;;;;;;10.75;5.80;;;11.30;99.90;;;;;;5072052;28;20040;-78
2022/04/13 01:00:30;;;;;;;9.32;6.32;;;11.30;99.90;;;;;;5072066;28;20043;-78
2022/04/13 01:02:58;;;;;;;17.23;6.22;;;11.30;99.90;;;;;;5072051;28;20055;-78
2022/04/13 01:05:24;;;;;;;10.27;5.95;;;11.30;99.90;;;;;;5071663;28;20055;-78
2022/04/13 01:07:51;;;;;;;10.27;5.43;;;11.30;99.90;;;;;;5072078;28;20102;-78
2022/04/13 01:10:17;;;;;;;10.73;6.20;;;11.20;99.90;;;;;;5071753;28;20119;-77
2022/04/13 01:12:43;;;;;;;12.75;5.80;;;11.20;99.90;;;;;;5071952;28;20190;-78
2022/04/13 01:15:08;;;;;;;12.38;5.65;;;11.20;99.90;;;;;;5071806;28;20048;-78
2022/04/13 01:17:37;;;;;;;13.25;6.55;;;11.20;99.90;;;;;;5071883;28;20556;-78
2022/04/13 01:20:05;;;;;;;11.45;5.45;;;11.20;99.90;;;;;;5071658;28;20046;-78
2022/04/13 01:22:31;;;;;;;10.20;6.88;;;11.20;99.90;;;;;;5071820;28;20052;-78
2022/04/13 01:24:56;;;;;;;13.15;6.68;;;11.20;99.90;;;;;;5070384;28;20110;-78
2022/04/13 01:27:22;;;;;;;12.00;6.47;;;11.10;99.90;;;;;;5071699;28;20127;-78
2022/04/13 01:29:54;;;;;;;14.20;7.15;;;11.20;99.90;;;;;;5075349;28;20037;-78
2022/04/13 01:32:20;;;;;;;13.70;6.80;;;11.10;99.90;;;;;;5073988;28;20045;-78
2022/04/13 01:34:53;;;;;;;9.68;6.25;;;11.00;99.90;;;;;;5073904;28;20055;-78
2022/04/13 01:37:20;;;;;;;12.65;6.70;;;11.00;99.90;;;;;;5075077;28;20066;-78
2022/04/13 01:39:46;;;;;;;10.43;6.93;;;11.00;99.90;;;;;;5075047;28;20048;-78
2022/04/13 01:44:48;;;;;;;12.73;6.80;;;11.10;99.90;;;;;;4938396;22;20061;-79
2022/04/13 01:47:14;;;;;;;11.13;6.00;;;11.00;99.90;;;;;;5052572;28;20053;-80
2022/04/13 01:49:40;;;;;;;11.48;6.80;;;11.00;99.90;;;;;;5036989;28;20045;-80
2022/04/13 01:52:06;;;;;;;12.40;7.43;;;11.00;99.90;;;;;;5044070;28;20506;-79
2022/04/13 01:54:32;;;;;;;12.88;6.82;;;10.90;99.90;;;;;;5038806;28;20052;-80
2022/04/13 01:56:58;;;;;;;11.75;7.18;;;10.90;99.90;;;;;;5056784;28;20043;-80
2022/04/13 01:59:24;;;;;;;11.70;7.47;;;10.80;99.90;;;;;;5056267;28;20479;-78
2022/04/13 02:01:50;;;;;;;11.63;7.65;;;10.80;99.90;;;;;;5037379;28;20081;-80
2022/04/13 02:04:25;;;;;;;17.48;7.75;;;10.70;99.90;;;;;;5036313;28;20084;-80
2022/04/13 02:06:53;;;;;;;17.85;8.00;;;10.70;99.90;;;;;;5036145;28;20041;-81
2022/04/13 02:09:19;;;;;;;12.95;7.65;;;10.80;99.90;;;;;;5036100;28;20492;-80
2022/04/13 02:11:46;;;;;;;18.08;7.78;;;10.60;99.90;;;;;;5036432;28;20073;-80
2022/04/13 02:14:12;;;;;;;15.38;8.20;;;10.60;99.90;;;;;;5036762;28;20048;-80
2022/04/13 02:16:38;;;;;;;11.52;7.45;;;10.50;99.90;;;;;;5035939;28;20090;-80
2022/04/13 02:19:06;;;;;;;15.02;8.95;;;10.50;99.90;;;;;;5035389;28;20046;-80
2022/04/13 02:21:32;;;;;;;16.75;7.30;;;10.40;99.90;;;;;;5035082;28;20041;-80
2022/04/13 02:23:57;;;;;;;18.30;8.10;;;10.40;99.90;;;;;;5035318;28;20045;-80
2022/04/13 02:26:24;;;;;;;16.17;8.38;;;10.40;99.90;;;;;;5017391;28;20052;-79
2022/04/13 02:28:50;;;;;;;13.35;8.40;;;10.40;99.90;;;;;;5035776;28;20120;-80
2022/04/13 02:31:16;;;;;;;16.88;8.20;;;10.40;99.90;;;;;;5035011;28;20134;-80
2022/04/13 02:33:42;;;;;;;13.18;8.07;;;10.40;99.90;;;;;;5001431;28;20100;-80
2022/04/13 02:36:07;;;;;;;17.75;8.65;;;10.40;99.90;;;;;;5035417;28;20506;-81
2022/04/13 02:38:36;;;;;;;15.65;8.00;;;10.30;99.90;;;;;;5017603;28;20042;-80
2022/04/13 02:41:02;;;;;;;16.88;9.95;;;10.30;99.90;;;;;;5035203;28;20049;-79
2022/04/13 02:43:28;;;;;;;17.40;9.10;;;10.30;99.90;;;;;;5035228;28;20129;-79
2022/04/13 02:45:57;;;;;;;15.27;9.23;;;10.30;99.90;;;;;;5019191;28;20121;-81
2022/04/13 02:48:23;;;;;;;12.15;7.72;;;10.20;99.90;;;;;;5035372;28;20142;-80
2022/04/13 02:50:49;;;;;;;17.95;8.70;;;10.20;99.90;;;;;;5035249;28;20042;-80
2022/04/13 02:53:15;;;;;;;14.27;8.52;;;10.20;99.90;;;;;;5034550;28;20435;-80
2022/04/13 02:55:44;;;;;;;12.88;8.00;;;10.10;99.90;;;;;;5000857;28;20045;-80
2022/04/13 02:58:10;;;;;;;13.63;9.15;;;10.10;99.90;;;;;;5055229;28;20487;-79
2022/04/13 03:00:36;;;;;;;15.40;9.43;;;10.10;99.90;;;;;;5037356;28;20048;-79
2022/04/13 03:03:02;;;;;;;15.18;9.60;;;10.10;99.90;;;;;;5054860;28;20128;-80
2022/04/13 03:05:29;;;;;;;17.23;9.55;;;10.10;99.90;;;;;;5054484;28;20052;-80
2022/04/13 03:07:57;;;;;;;14.15;9.40;;;10.10;99.90;;;;;;5054337;28;20463;-79
2022/04/13 03:10:23;;;;;;;16.80;8.95;;;11.00;99.90;;;;;;5054328;28;20045;-79
2022/04/13 03:12:49;;;;;;;18.65;9.98;;;10.10;99.90;;;;;;5020260;28;20047;-80
2022/04/13 03:15:14;;;;;;;17.48;9.82;;;10.00;99.90;;;;;;5036551;28;20093;-80
2022/04/13 03:17:43;;;;;;;20.98;10.25;;;10.00;99.90;;;;;;5054516;28;20048;-79
2022/04/13 03:20:10;;;;;;;15.13;9.80;;;10.00;99.90;;;;;;5054696;28;20052;-79
2022/04/13 03:22:36;;;;;;;15.38;10.07;;;9.90;99.90;;;;;;5054911;28;20120;-80
2022/04/13 03:25:02;;;;;;;18.08;11.43;;;9.90;99.90;;;;;;5036656;28;20138;-80
2022/04/13 03:27:28;;;;;;;19.40;10.48;;;10.10;99.90;;;;;;5036288;28;20048;-79
2022/04/13 03:29:57;;;;;;;14.63;9.75;;;9.90;99.90;;;;;;5020195;28;20041;-78
2022/04/13 03:32:22;;;;;;;17.42;10.35;;;9.90;99.90;;;;;;5036592;28;20041;-80
2022/04/13 03:34:48;;;;;;;20.52;10.75;;;10.00;99.90;;;;;;5054559;28;20462;-78
2022/04/13 03:37:14;;;;;;;20.58;11.43;;;10.00;99.90;;;;;;5054956;28;20076;-80
2022/04/13 03:39:39;;;;;;;20.42;10.10;;;10.00;99.90;;;;;;5054556;28;20041;-79
2022/04/13 03:42:05;;;;;;;23.58;10.82;;;10.00;99.90;;;;;;5054769;28;20060;-80
2022/04/13 03:44:31;;;;;;;19.25;9.98;;;10.00;99.90;;;;;;5054430;28;20052;-80
2022/04/13 03:46:56;;;;;;;20.55;10.18;;;10.10;99.90;;;;;;5054780;28;20071;-79
2022/04/13 03:49:23;;;;;;;19.67;10.23;;;10.10;99.90;;;;;;5073600;28;20032;-81
2022/04/13 03:51:48;;;;;;;17.65;11.25;;;10.20;99.90;;;;;;5077345;28;20036;-80
2022/04/13 03:54:14;;;;;;;16.83;9.90;;;10.30;99.90;;;;;;5077988;28;20037;-81
2022/04/13 03:56:39;;;;;;;20.20;11.75;;;10.40;99.90;;;;;;5060422;28;20067;-81
2022/04/13 03:59:07;;;;;;;16.88;10.48;;;10.40;99.90;;;;;;5077198;28;20069;-80
2022/04/13 04:01:35;;;;;;;22.58;11.40;;;10.50;99.90;;;;;;5058453;28;20403;-80
2022/04/13 04:04:01;;;;;;;19.65;10.95;;;10.60;99.90;;;;;;5054520;28;20128;-79
2022/04/13 04:06:27;;;;;;;20.80;11.70;;;10.70;99.90;;;;;;5036346;28;20123;-80
2022/04/13 04:08:52;;;;;;;22.77;11.23;;;10.70;99.90;;;;;;5036008;28;20049;-78
2022/04/13 04:11:18;;;;;;;19.35;10.85;;;10.80;99.90;;;;;;5053718;28;20414;-80
2022/04/13 04:13:44;;;;;;;20.00;11.50;;;10.90;99.90;;;;;;5053341;28;20044;-79
2022/04/13 04:16:09;;;;;;;23.02;12.02;;;10.90;99.90;;;;;;5053328;28;20063;-80
2022/04/13 04:18:35;;;;;;;19.50;12.05;;;10.90;99.90;;;;;;5019481;28;20045;-79
2022/04/13 04:21:01;;;;;;;17.23;11.35;;;10.90;99.90;;;;;;5053764;28;20045;-79
2022/04/13 04:23:27;;;;;;;20.15;11.57;;;10.90;99.90;;;;;;5053418;28;20040;-79
2022/04/13 04:25:52;;;;;;;21.90;11.50;;;10.80;99.90;;;;;;5053213;28;20483;-80
2022/04/13 04:28:18;;;;;;;24.27;12.10;;;10.80;99.90;;;;;;5053498;28;20045;-80
2022/04/13 04:30:43;;;;;;;24.13;12.68;;;10.70;99.90;;;;;;5035632;28;20033;-80
2022/04/13 04:33:12;;;;;;;22.73;12.13;;;10.70;99.90;;;;;;5053696;28;20124;-79
2022/04/13 04:35:39;;;;;;;21.27;12.27;;;10.60;99.90;;;;;;5053345;28;20130;-79
2022/04/13 04:38:04;;;;;;;24.17;12.25;;;10.50;99.90;;;;;;5053675;28;20053;-81
2022/04/13 04:40:30;;;;;;;22.15;12.82;;;10.50;99.90;;;;;;5053418;28;20451;-79
2022/04/13 04:42:58;;;;;;;21.17;12.10;;;10.50;99.90;;;;;;5052914;28;20037;-78
2022/04/13 04:45:24;;;;;;;21.80;12.82;;;10.50;99.90;;;;;;5052895;28;20041;-80
2022/04/13 04:47:50;;;;;;;21.02;12.07;;;10.50;99.90;;;;;;5035541;28;20051;-80
2022/04/13 04:50:17;;;;;;;21.58;11.90;;;10.40;99.90;;;;;;5053378;28;20044;-79
2022/04/13 04:52:44;;;;;;;20.48;12.65;;;10.40;99.90;;;;;;5053634;28;20094;-79
2022/04/13 04:55:11;;;;;;;20.02;12.38;;;10.40;99.90;;;;;;5053428;28;20045;-79
2022/04/13 04:57:38;;;;;;;23.63;12.38;;;10.50;99.90;;;;;;5053772;28;20044;-79
2022/04/13 05:00:06;;;;;;;21.88;11.70;;;10.50;99.90;;;;;;5053475;28;20057;-79
2022/04/13 05:02:32;;;;;;;20.35;12.57;;;10.50;99.90;;;;;;5053462;28;20048;-77
2022/04/13 05:04:57;;;;;;;24.60;12.18;;;10.50;99.90;;;;;;5057514;28;20052;-79
2022/04/13 05:07:23;;;;;;;23.17;12.90;;;10.50;99.90;;;;;;5038867;28;20044;-80
2022/04/13 05:09:48;;;;;;;21.30;13.55;;;10.50;99.90;;;;;;5039124;28;20483;-78
2022/04/13 05:12:14;;;;;;;22.80;12.60;;;10.50;99.90;;;;;;5057199;28;20118;-80
2022/04/13 05:14:40;;;;;;;26.88;13.20;;;10.50;99.90;;;;;;5057228;28;20555;-80
2022/04/13 05:17:05;;;;;;;23.60;13.15;;;10.60;99.90;;;;;;5057289;28;20036;-79
2022/04/13 05:19:33;;;;;;;26.00;13.27;;;10.60;99.90;;;;;;5057016;28;20118;-80
2022/04/13 05:22:01;;;;;;;26.73;12.70;;;10.60;99.90;;;;;;5057168;28;20064;-79
2022/04/13 05:24:27;;;;;;;25.00;13.70;;;10.70;99.90;;;;;;5057003;28;20041;-79
2022/04/13 05:26:52;;;;;;;27.13;14.02;;;10.80;99.90;;;;;;5056791;28;20049;-80
2022/04/13 05:29:18;;;;;;;21.75;12.55;;;10.90;99.90;;;;;;5056942;28;20069;-80
2022/04/13 05:31:47;;;;;;;19.25;11.52;;;10.90;99.90;;;;;;5056746;28;20033;-79
2022/04/13 05:34:13;;;;;;;25.08;13.10;;;11.00;99.90;;;;;;5056656;28;20037;-80
2022/04/13 05:36:38;;;;;;;21.27;12.55;;;11.10;99.90;;;;;;5056292;28;20052;-79
2022/04/13 05:39:04;;;;;;;27.95;13.05;;;11.20;99.90;;;;;;5056705;28;20483;-80
2022/04/13 05:41:29;;;;;;;26.02;13.32;;;11.20;99.90;;;;;;5056413;28;20068;-79
2022/04/13 05:43:55;;;;;;;23.05;12.82;;;11.20;99.90;;;;;;5056382;28;20045;-82
2022/04/13 05:46:21;;;;;;;24.33;12.55;;;11.20;99.90;;;;;;5056115;28;20107;-79
2022/04/13 05:48:47;;;;;;;26.92;13.38;;;11.20;99.90;;;;;;5056116;28;20052;-80
2022/04/13 05:51:13;;;;;;;36.80;13.10;;;11.20;99.90;;;;;;5056262;28;20499;-81
2022/04/13 05:53:38;;;;;;;23.98;14.65;;;11.30;99.90;;;;;;5056299;28;20044;-80
2022/04/13 05:56:05;;;;;;;22.77;12.55;;;11.30;99.90;;;;;;5056166;28;20044;-80
2022/04/13 05:58:31;;;;;;;24.73;13.75;;;11.20;99.90;;;;;;5056117;28;20052;-79
2022/04/13 06:00:57;;;;;;;30.05;14.13;;;11.20;99.90;;;;;;5056194;28;20138;-80
2022/04/13 06:03:23;;;;;;;23.45;12.45;;;11.30;99.90;;;;;;5055973;28;20120;-79
2022/04/13 06:05:50;;;;;;;24.58;12.63;;;11.30;99.90;;;;;;5056278;28;20045;-80
2022/04/13 06:08:16;;;;;;;21.95;13.05;;;11.30;99.90;;;;;;5056822;28;20040;-79
2022/04/13 06:10:41;;;;;;;22.83;13.82;;;11.40;99.90;;;;;;5058027;28;20096;-80
2022/04/13 06:13:07;;;;;;;25.02;12.90;;;11.50;99.90;;;;;;5059002;28;20045;-79
2022/04/13 06:15:35;;;;;;;29.60;14.23;;;11.60;99.90;;;;;;5040398;28;20500;-79
2022/04/13 06:18:01;;;;;;;22.25;13.35;;;11.70;99.90;;;;;;5041303;28;20110;-78
2022/04/13 06:20:27;;;;;;;25.65;13.80;;;11.90;99.90;;;;;;5073191;28;20096;-81
2022/04/13 06:22:52;;;;;;;24.40;14.52;;;12.10;99.90;;;;;;5078941;28;20491;-80
2022/04/13 06:25:19;;;;;;;25.20;13.00;;;12.40;99.90;;;;;;5078253;28;20033;-81
2022/04/13 06:27:45;;;;;;;27.85;13.80;;;12.70;99.90;;;;;;5076242;28;20500;-78
2022/04/13 06:30:12;;;;;;;19.98;12.93;;;13.20;99.90;;;;;;5078651;28;20060;-81
2022/04/13 06:32:43;;;;;;;22.95;12.48;;;13.70;99.90;;;;;;5078770;28;20049;-80
2022/04/13 06:35:14;;;;;;;24.13;12.15;;;14.00;99.90;;;;;;5074603;28;20037;-79
2022/04/13 06:37:43;;;;;;;25.08;13.43;;;14.00;99.90;;;;;;5063247;28;20045;-79
2022/04/13 06:40:10;;;;;;;25.98;12.82;;;13.90;99.90;;;;;;5054781;28;20037;-80
2022/04/13 06:42:37;;;;;;;19.98;12.23;;;14.10;99.90;;;;;;5054797;28;20547;-80
2022/04/13 06:45:14;;;;;;;22.60;12.48;;;14.40;99.90;;;;;;5036987;28;20107;-79
2022/04/13 06:47:40;;;;;;;21.08;11.38;;;15.50;99.90;;;;;;5036845;28;20114;-80
2022/04/13 06:50:07;;;;;;;23.52;13.18;;;15.40;99.90;;;;;;5054421;28;20534;-79
2022/04/13 06:52:34;;;;;;;22.52;12.20;;;15.80;99.90;;;;;;5054361;28;20052;-79
2022/04/13 06:55:00;;;;;;;22.38;11.98;;;16.00;99.90;;;;;;5054194;28;20076;-79
2022/04/13 06:57:26;;;;;;;22.92;11.90;;;15.60;99.90;;;;;;5054500;28;20049;-80
2022/04/13 06:59:52;;;;;;;19.55;11.18;;;15.90;99.90;;;;;;5036758;28;20454;-79
2022/04/13 07:02:17;;;;;;;19.27;11.57;;;16.00;99.90;;;;;;5054796;28;20437;-81
2022/04/13 07:04:43;;;;;;;24.98;11.75;;;15.70;99.90;;;;;;5054157;28;20048;-81
2022/04/13 07:07:08;;;;;;;21.50;10.43;;;15.50;99.90;;;;;;5054039;28;20040;-80
2022/04/13 07:09:34;;;;;;;17.80;11.23;;;15.40;99.90;;;;;;5054397;28;20049;-80
2022/04/13 07:12:00;;;;;;;23.35;9.73;;;15.30;99.90;;;;;;5054486;28;20076;-79
2022/04/13 07:14:25;;;;;;;18.60;10.65;;;15.20;99.90;;;;;;5054294;28;20049;-80
2022/04/13 07:16:51;;;;;;;20.58;11.32;;;15.30;99.90;;;;;;5053858;28;20147;-78
2022/04/13 07:19:17;;;;;;;19.33;11.55;;;15.50;99.90;;;;;;5054370;28;20398;-80
2022/04/13 07:21:43;;;;;;;20.95;11.82;;;16.00;99.90;;;;;;5053753;28;20040;-81
2022/04/13 07:24:10;;;;;;;24.58;11.20;;;16.50;99.90;;;;;;5036338;28;20037;-80
2022/04/13 07:26:36;;;;;;;20.98;11.30;;;16.80;99.90;;;;;;5053418;28;20049;-79
2022/04/13 07:29:02;;;;;;;25.02;11.68;;;17.20;99.90;;;;;;5053930;28;20148;-81
2022/04/13 07:31:28;;;;;;;22.00;10.95;;;17.50;99.90;;;;;;5036130;28;20049;-80
2022/04/13 07:33:57;;;;;;;19.80;11.45;;;18.00;99.90;;;;;;5053820;28;20424;-80
2022/04/13 07:36:23;;;;;;;23.33;12.00;;;18.40;99.90;;;;;;5035688;28;20037;-79
2022/04/13 07:38:50;;;;;;;19.15;11.35;;;18.50;99.90;;;;;;5053655;28;20429;-80
2022/04/13 07:41:16;;;;;;;17.73;10.15;;;18.80;99.90;;;;;;5053524;28;20045;-80
2022/04/13 07:43:43;;;;;;;22.13;11.02;;;18.90;99.90;;;;;;5053546;28;20406;-80
2022/04/13 07:46:09;;;;;;;20.02;10.73;;;19.00;99.90;;;;;;5053603;28;20048;-79
2022/04/13 07:48:35;;;;;;;19.67;11.88;;;18.90;99.90;;;;;;5053159;28;20395;-80
2022/04/13 07:51:01;;;;;;;29.60;12.38;;;18.60;99.90;;;;;;5053185;28;20041;-80
2022/04/13 07:53:26;;;;;;;20.92;9.98;;;18.40;99.90;;;;;;5053621;28;20037;-80
2022/04/13 07:55:52;;;;;;;20.88;9.48;;;18.20;99.90;;;;;;5053314;28;20522;-79
2022/04/13 07:58:17;;;;;;;18.00;9.82;;;17.80;99.90;;;;;;5053442;28;20064;-80
2022/04/13 08:00:43;;;;;;;16.60;8.95;;;17.60;99.90;;;;;;5053003;28;20041;-79
2022/04/13 08:03:08;;;;;;;17.00;8.90;;;17.30;99.90;;;;;;5053172;28;20052;-79
2022/04/13 08:05:34;;;;;;;18.75;9.18;;;17.10;99.90;;;;;;5053097;28;20047;-79
2022/04/13 08:08:00;;;;;;;18.35;8.35;;;16.80;99.90;;;;;;5053156;28;20041;-80
2022/04/13 08:10:26;;;;;;;14.32;8.88;;;16.60;99.90;;;;;;5053005;28;20094;-80
2022/04/13 08:12:51;;;;;;;19.10;9.10;;;16.50;99.90;;;;;;5053088;28;20052;-80
2022/04/13 08:15:17;;;;;;;19.90;10.05;;;16.50;99.90;;;;;;5053117;28;20583;-80
2022/04/13 08:17:43;;;;;;;21.85;10.60;;;16.60;99.90;;;;;;5053181;28;20037;-80
2022/04/13 08:20:14;;;;;;;19.42;9.00;;;16.60;99.90;;;;;;5052892;28;20123;-80
2022/04/13 08:22:41;;;;;;;21.50;9.45;;;16.60;99.90;;;;;;5052927;28;20040;-80
2022/04/13 08:25:08;;;;;;;17.65;10.68;;;16.70;99.90;;;;;;5052673;28;20037;-80
2022/04/13 08:27:36;;;;;;;17.05;9.25;;;16.60;99.90;;;;;;5053095;28;20455;-80
2022/04/13 08:30:03;;;;;;;17.67;9.38;;;16.70;99.90;;;;;;5035261;28;20533;-80
2022/04/13 08:32:28;;;;;;;18.65;9.38;;;16.80;99.90;;;;;;5052816;28;20037;-80
2022/04/13 08:34:57;;;;;;;21.80;10.23;;;16.90;99.90;;;;;;5052569;28;20391;-80
2022/04/13 08:37:26;;;;;;;16.55;9.80;;;17.00;99.90;;;;;;5054237;28;20399;-79
2022/04/13 08:39:52;;;;;;;18.88;9.85;;;17.30;99.90;;;;;;5056633;28;20091;-79
2022/04/13 08:42:55;;;;;;;21.27;9.02;;;17.70;99.90;;;;;;5056850;28;20084;-79
2022/04/13 08:45:25;;;;;;;20.30;9.43;;;18.00;99.90;;;;;;5056690;28;20471;-80
2022/04/13 08:48:01;;;;;;;14.65;7.75;;;18.20;99.90;;;;;;5038848;28;20446;-80
2022/04/13 08:50:30;;;;;;;18.10;8.90;;;18.20;99.90;;;;;;5057666;28;20458;-80
2022/04/13 08:53:02;;;;;;;18.45;7.88;;;18.30;99.90;;;;;;5039498;28;20394;-80
2022/04/13 08:55:29;;;;;;;15.55;8.55;;;18.40;99.90;;;;;;5062423;28;20028;-80
2022/04/13 08:58:01;;;;;;;13.20;7.70;;;18.40;99.90;;;;;;5081061;28;20048;-80
2022/04/13 09:00:31;;;;;;;19.58;8.18;;;18.60;99.90;;;;;;5081353;28;20025;-81
2022/04/13 09:03:13;;;;;;;22.90;7.07;;;18.80;99.90;;;;;;5081493;28;20028;-81
2022/04/13 09:05:40;;;;;;;18.65;7.03;;;19.20;99.60;;;;;;5081164;28;20048;-80
2022/04/13 09:08:25;;;;;;;16.90;7.53;;;19.50;97.10;;;;;;5081161;28;20044;-79
2022/04/13 09:10:52;;;;;;;13.75;6.57;;;19.80;95.40;;;;;;5067517;28;20126;-79
2022/04/13 09:13:20;;;;;;;15.75;7.20;;;19.60;94.80;;;;;;5056756;28;20055;-79
2022/04/13 09:15:46;;;;;;;12.18;6.65;;;19.30;96.60;;;;;;5056433;28;20041;-78
2022/04/13 09:18:12;;;;;;;13.35;6.82;;;19.20;97.90;;;;;;5056437;28;20040;-80
2022/04/13 09:20:38;;;;;;;15.10;6.97;;;19.50;95.60;;;;;;5056964;28;20059;-80
2022/04/13 09:23:05;;;;;;;11.82;6.63;;;19.60;94.60;;;;;;5057332;28;20044;-80
2022/04/13 09:25:32;;;;;;;13.25;6.72;;;19.80;93.90;;;;;;5038802;28;20123;-80
2022/04/13 09:27:59;;;;;;;10.70;6.60;;;19.90;94.20;;;;;;5056460;28;20045;-79
2022/04/13 09:30:25;;;;;;;11.85;6.35;;;20.70;93.60;;;;;;5055762;28;20120;-79
2022/04/13 09:32:51;;;;;;;10.98;5.55;;;20.60;91.80;;;;;;5055797;28;20045;-79
2022/04/13 09:35:18;;;;;;;14.18;6.50;;;20.90;86.90;;;;;;5055919;28;20396;-80
2022/04/13 09:37:44;;;;;;;11.68;6.45;;;20.90;83.10;;;;;;5055848;28;20414;-80
2022/04/13 09:40:10;;;;;;;10.57;5.28;;;21.00;84.40;;;;;;5055961;28;20243;-80
2022/04/13 09:42:36;;;;;;;14.98;5.47;;;21.00;80.60;;;;;;5055876;28;20434;-79
2022/04/13 09:45:03;;;;;;;14.57;6.18;;;21.10;80.10;;;;;;5055403;28;20461;-79
2022/04/13 09:47:31;;;;;;;14.52;6.03;;;21.10;80.20;;;;;;5055348;28;20053;-80
2022/04/13 09:49:57;;;;;;;13.02;4.88;;;21.20;78.00;;;;;;5054906;28;20052;-80
2022/04/13 09:52:38;;;;;;;10.75;5.25;;;20.90;77.90;;;;;;5037491;28;20044;-79
2022/04/13 09:55:12;;;;;;;10.82;4.88;;;20.70;73.90;;;;;;5055396;28;20049;-79
2022/04/13 09:57:38;;;;;;;12.98;5.13;;;20.60;82.50;;;;;;5055384;28;20110;-79
2022/04/13 10:00:06;;;;;;;10.68;4.78;;;20.60;79.40;;;;;;5055236;28;20073;-79
2022/04/13 10:02:35;;;;;;;9.73;4.60;;;20.70;75.90;;;;;;5037348;28;20041;-80
2022/04/13 10:05:03;;;;;;;10.88;4.85;;;20.60;75.90;;;;;;5037076;28;20057;-79
2022/04/13 10:07:29;;;;;;;8.32;4.78;;;20.70;80.20;;;;;;5055554;28;20040;-79
2022/04/13 10:09:57;;;;;;;10.27;5.05;;;20.60;78.10;;;;;;5037652;28;20056;-80
2022/04/13 10:12:23;;;;;;;10.02;4.40;;;20.90;73.00;;;;;;5054819;28;20051;-80
2022/04/13 10:14:49;;;;;;;13.32;5.32;;;20.70;77.60;;;;;;5055424;28;20128;-79
2022/04/13 10:17:17;;;;;;;12.88;5.60;;;21.00;79.20;;;;;;5037258;28;20033;-79
2022/04/13 10:19:56;;;;;;;8.32;4.20;;;21.40;73.80;;;;;;5054933;28;20045;-79
2022/04/13 10:22:22;;;;;;;8.00;4.20;;;21.70;69.60;;;;;;5055097;28;20048;-78
2022/04/13 10:24:47;;;;;;;6.53;3.83;;;22.10;63.80;;;;;;5054646;28;20041;-80
2022/04/13 10:27:19;;;;;;;5.68;3.78;;;22.60;62.10;;;;;;5036800;28;20131;-80
2022/04/13 10:29:48;;;;;;;8.20;4.15;;;23.00;55.90;;;;;;5054792;28;20055;-80
2022/04/13 10:32:19;;;;;;;8.23;4.10;;;23.50;43.10;;;;;;5054680;28;20095;-79
2022/04/13 10:34:49;;;;;;;7.72;3.53;;;23.70;39.20;;;;;;5054649;28;20044;-80
2022/04/13 10:37:17;;;;;;;8.23;3.20;;;23.50;39.60;;;;;;5054622;28;20454;-79
2022/04/13 10:39:45;;;;;;;6.78;3.05;;;23.30;43.30;;;;;;5054646;28;20072;-79
2022/04/13 10:42:15;;;;;;;8.18;3.00;;;23.30;40.40;;;;;;5054637;28;20053;-80
2022/04/13 10:44:53;;;;;;;11.43;3.75;;;23.40;41.50;;;;;;5054316;28;20045;-80
2022/04/13 10:47:25;;;;;;;5.30;2.65;;;23.10;33.40;;;;;;5054648;28;20166;-78
2022/04/13 10:49:57;;;;;;;10.18;3.20;;;22.90;37.30;;;;;;5054913;28;20102;-79
2022/04/13 10:52:33;;;;;;;5.38;2.90;;;22.80;40.70;;;;;;5054409;28;20048;-79
2022/04/13 10:55:07;;;;;;;8.25;3.97;;;22.80;40.90;;;;;;5054870;28;20419;-78
2022/04/13 10:57:49;;;;;;;11.35;4.43;;;22.80;38.30;;;;;;5054406;28;20052;-79
2022/04/13 11:00:19;;;;;;;10.30;3.50;;;22.90;38.00;;;;;;5036711;28;20495;-80
2022/04/13 11:02:58;;;;;;;8.82;3.35;;;23.40;38.30;;;;;;5054652;28;20053;-79
2022/04/13 11:05:25;;;;;;;10.10;3.17;;;23.40;33.60;;;;;;5054324;28;20052;-79
2022/04/13 11:08:12;;;;;;;8.45;3.53;;;23.90;35.70;;;;;;5054525;28;20037;-79
2022/04/13 11:10:38;;;;;;;7.07;3.08;;;24.30;30.50;;;;;;5054522;28;20052;-80
2022/04/13 11:13:04;;;;;;;6.78;2.65;;;24.40;27.90;;;;;;5036549;28;20040;-80
2022/04/13 11:15:38;;;;;;;7.93;2.33;;;24.50;24.20;;;;;;5054420;28;20049;-80
2022/04/13 11:18:14;;;;;;;6.90;2.38;;;24.40;22.80;;;;;;5054280;28;20401;-80
2022/04/13 11:20:58;;;;;;;10.50;2.75;;;24.60;24.80;;;;;;5054357;28;20068;-79
2022/04/13 11:23:54;;;;;;;5.10;2.38;;;24.80;23.30;;;;;;5054320;28;20040;-80
2022/04/13 11:26:48;;;;;;;6.95;2.17;;;25.20;18.90;;;;;;5036016;28;20044;-78
2022/04/13 11:29:21;;;;;;;5.90;2.15;;;24.80;18.90;;;;;;5036192;28;20080;-79
2022/04/13 11:32:02;;;;;;;5.82;3.22;;;24.60;18.20;;;;;;5036456;28;20417;-79
2022/04/13 11:34:29;;;;;;;7.75;2.53;;;24.40;17.60;;;;;;5054333;28;20044;-80
2022/04/13 11:36:59;;;;;;;5.13;2.15;;;23.90;19.70;;;;;;5054339;28;20036;-78
2022/04/13 11:39:44;;;;;;;5.00;2.63;;;24.00;20.20;;;;;;5054917;28;20041;-80
2022/04/13 11:42:24;;;;;;;5.60;2.65;;;24.00;22.00;;;;;;5063752;28;20029;-81
2022/04/13 11:45:14;;;;;;;7.57;2.20;;;23.90;20.30;;;;;;5078088;28;20137;-80
2022/04/13 11:47:49;;;;;;;5.68;1.83;;;23.80;19.20;;;;;;5078155;28;20037;-78
2022/04/13 11:50:14;;;;;;;5.00;1.60;;;23.50;19.30;;;;;;5077825;28;20072;-79
2022/04/13 11:52:44;;;;;;;3.83;1.40;;;23.20;18.30;;;;;;5077242;28;20025;-80
2022/04/13 11:55:20;;;;;;;5.07;1.80;;;22.90;16.70;;;;;;5052340;28;20056;-78
2022/04/13 11:58:04;;;;;;;7.13;3.03;;;22.60;19.50;;;;;;5037140;28;20044;-80
2022/04/13 12:01:07;;;;;;;11.43;3.42;;;22.20;24.50;;;;;;5053926;28;20053;-79
2022/04/13 12:03:38;;;;;;;8.88;3.25;;;21.90;27.80;;;;;;5053928;28;20053;-79
2022/04/13 12:06:11;;;;;;;10.73;3.15;;;21.60;32.00;;;;;;5035594;28;20055;-80
2022/04/13 12:08:45;;;;;;;6.72;2.53;;;21.40;35.50;;;;;;5053465;28;20084;-80
2022/04/13 12:11:13;;;;;;;9.73;2.80;;;21.00;40.50;;;;;;5036108;28;20044;-78
2022/04/13 12:13:53;;;;;;;9.68;2.85;;;21.30;40.60;;;;;;5034807;28;20045;-79
2022/04/13 12:16:23;;;;;;;7.38;2.60;;;21.50;38.70;;;;;;5053249;28;20495;-80
2022/04/13 12:18:51;;;;;;;9.40;3.45;;;21.70;37.80;;;;;;5053116;28;20086;-79
2022/04/13 12:21:23;;;;;;;9.20;3.22;;;21.80;35.20;;;;;;5053069;28;20041;-78
2022/04/13 12:23:49;;;;;;;8.82;3.22;;;21.90;35.00;;;;;;5053242;28;20056;-79
2022/04/13 12:26:15;;;;;;;9.45;3.50;;;22.10;36.30;;;;;;5053012;28;20041;-80
2022/04/13 12:28:41;;;;;;;12.93;3.15;;;22.30;34.20;;;;;;5053240;28;20033;-80
2022/04/13 12:31:10;;;;;;;7.32;3.05;;;22.20;32.50;;;;;;5035579;28;20044;-80
2022/04/13 12:33:37;;;;;;;10.65;2.65;;;22.00;35.70;;;;;;5053041;28;20048;-78
2022/04/13 12:36:08;;;;;;;3.55;1.25;;;21.60;33.50;;;;;;5052800;28;20041;-80
2022/04/13 12:38:36;;;;;;;7.13;1.92;;;21.10;33.70;;;;;;5053023;28;20403;-79
2022/04/13 12:41:04;;;;;;;5.10;1.00;;;20.90;32.00;;;;;;5035432;28;20041;-80
2022/04/13 12:43:31;;;;;;;4.97;1.08;;;20.70;29.80;;;;;;5053024;28;20045;-79